Time;durP1;ratioP1;P1;durP2;ratioP2;P2;SDS_P1;SDS_P2;PMS_P1;PMS_P2;Temp;Humidity;BMP_temperature;BMP_pressure;BME280_temperature;BME280_humidity;BME280_pressure;Samples;Min_cycle;Max_cycle;Signal;HPM_P1;HPM_P2
2023/10/22 00:02:09;;;;;;;14.10;6.27;;;8.10;99.90;;;;;;5054755;28;20412;-50
2023/10/22 00:04:34;;;;;;;9.50;5.83;;;8.20;99.90;;;;;;5054666;28;20464;-50
2023/10/22 00:07:00;;;;;;;11.07;6.50;;;8.20;99.90;;;;;;5054357;28;20433;-50
2023/10/22 00:09:25;;;;;;;11.63;6.00;;;8.20;99.90;;;;;;5054676;28;20187;-50
2023/10/22 00:11:51;;;;;;;10.07;6.20;;;8.20;99.90;;;;;;5054606;28;20185;-50
2023/10/22 00:14:17;;;;;;;16.23;6.10;;;8.20;99.90;;;;;;5054418;28;20188;-50
2023/10/22 00:16:42;;;;;;;9.33;5.80;;;8.20;99.90;;;;;;5054456;28;20228;-51
2023/10/22 00:19:08;;;;;;;12.20;5.60;;;8.20;99.90;;;;;;5054035;28;20181;-50
2023/10/22 00:21:34;;;;;;;7.47;5.33;;;8.20;99.90;;;;;;5054581;28;20248;-50
2023/10/22 00:23:59;;;;;;;11.97;6.03;;;8.10;99.90;;;;;;5054122;28;20944;-50
2023/10/22 00:26:25;;;;;;;10.03;6.03;;;8.20;99.90;;;;;;5054032;28;20246;-50
2023/10/22 00:28:51;;;;;;;8.83;5.40;;;8.20;99.90;;;;;;5053937;28;20215;-51
2023/10/22 00:31:16;;;;;;;6.83;4.90;;;8.10;99.90;;;;;;5054088;28;20196;-50
2023/10/22 00:33:42;;;;;;;15.10;5.90;;;8.20;99.90;;;;;;5053919;28;20178;-50
2023/10/22 00:36:07;;;;;;;9.00;5.00;;;8.20;99.90;;;;;;5053809;28;20189;-50
2023/10/22 00:38:33;;;;;;;10.90;5.33;;;8.20;99.90;;;;;;5053799;28;20191;-50
2023/10/22 00:40:59;;;;;;;11.47;5.70;;;8.20;99.90;;;;;;5054172;28;20185;-50
2023/10/22 00:43:24;;;;;;;11.10;6.17;;;8.20;99.90;;;;;;5053965;28;20187;-49
2023/10/22 00:45:50;;;;;;;7.20;5.00;;;8.20;99.90;;;;;;5053706;28;20204;-49
2023/10/22 00:48:17;;;;;;;8.13;4.97;;;8.20;99.90;;;;;;5053468;28;20236;-49
2023/10/22 00:50:43;;;;;;;7.63;5.10;;;8.10;99.90;;;;;;5053447;28;20476;-50
2023/10/22 00:53:13;;;;;;;7.90;5.10;;;8.10;99.90;;;;;;5053499;28;20400;-50
2023/10/22 00:55:40;;;;;;;20.07;6.93;;;8.00;99.90;;;;;;5053973;28;20422;-50
2023/10/22 00:58:06;;;;;;;10.70;5.50;;;8.00;99.90;;;;;;5053381;28;21020;-50
2023/10/22 01:00:33;;;;;;;8.33;5.70;;;8.00;99.90;;;;;;5053915;28;20453;-50
2023/10/22 01:03:02;;;;;;;9.20;5.60;;;7.90;99.90;;;;;;5053619;28;20435;-50
2023/10/22 01:05:35;;;;;;;13.33;5.90;;;7.90;99.90;;;;;;5053421;28;20465;-50
2023/10/22 01:08:02;;;;;;;11.80;5.10;;;7.90;99.90;;;;;;5053650;28;20412;-49
2023/10/22 01:10:27;;;;;;;12.30;5.73;;;7.90;99.90;;;;;;5053269;28;20428;-50
2023/10/22 01:12:53;;;;;;;9.07;5.80;;;7.90;99.90;;;;;;5053234;28;20427;-50
2023/10/22 01:15:18;;;;;;;7.93;5.53;;;7.90;99.90;;;;;;5053766;28;20223;-50
2023/10/22 01:17:44;;;;;;;10.10;5.67;;;7.80;99.90;;;;;;5053166;28;20213;-50
2023/10/22 01:20:10;;;;;;;11.20;5.60;;;7.80;99.90;;;;;;5053475;28;20179;-50
2023/10/22 01:22:36;;;;;;;9.10;5.63;;;7.80;99.90;;;;;;5053206;28;20172;-50
2023/10/22 01:25:02;;;;;;;8.73;5.60;;;7.70;99.90;;;;;;5053519;28;20466;-50
2023/10/22 01:27:28;;;;;;;13.67;5.43;;;7.70;99.90;;;;;;5053502;28;20190;-50
2023/10/22 01:29:53;;;;;;;9.70;5.53;;;7.70;99.90;;;;;;5053501;28;20980;-50
2023/10/22 01:32:19;;;;;;;8.90;5.40;;;7.70;99.90;;;;;;5053194;28;20570;-50
2023/10/22 01:34:44;;;;;;;10.03;6.00;;;7.80;99.90;;;;;;5052879;28;20273;-50
2023/10/22 01:37:10;;;;;;;11.00;5.60;;;7.80;99.90;;;;;;5053087;28;20184;-50
2023/10/22 01:39:36;;;;;;;8.00;5.00;;;7.70;99.90;;;;;;5053689;28;20174;-50
2023/10/22 01:42:04;;;;;;;20.07;6.93;;;7.70;99.90;;;;;;5057255;28;20646;-50
2023/10/22 01:44:29;;;;;;;9.67;5.47;;;7.70;99.90;;;;;;5057220;28;20466;-50
2023/10/22 01:46:55;;;;;;;14.83;5.93;;;7.70;99.90;;;;;;5057245;28;20472;-50
2023/10/22 01:49:20;;;;;;;12.83;6.00;;;7.70;99.90;;;;;;5057069;28;20181;-50
2023/10/22 01:51:47;;;;;;;10.80;5.80;;;7.70;99.90;;;;;;5056581;28;20282;-49
2023/10/22 01:54:13;;;;;;;10.57;5.87;;;7.70;99.90;;;;;;5038937;28;20264;-52
2023/10/22 01:56:39;;;;;;;12.97;5.10;;;7.70;99.90;;;;;;5056972;28;20532;-51
2023/10/22 01:59:05;;;;;;;18.03;5.63;;;7.70;99.90;;;;;;5057265;28;20201;-51
2023/10/22 02:01:31;;;;;;;6.87;4.90;;;7.60;99.90;;;;;;5057063;28;20318;-51
2023/10/22 02:03:57;;;;;;;16.63;5.33;;;7.60;99.90;;;;;;5056507;28;20458;-51
2023/10/22 02:06:24;;;;;;;11.13;6.00;;;7.60;99.90;;;;;;5057189;28;20421;-51
2023/10/22 02:08:49;;;;;;;9.57;5.00;;;7.60;99.90;;;;;;5038408;28;20232;-51
2023/10/22 02:11:15;;;;;;;9.63;5.87;;;7.60;99.90;;;;;;5056924;28;20459;-51
2023/10/22 02:13:40;;;;;;;8.60;5.50;;;7.60;99.90;;;;;;5056407;28;20647;-51
2023/10/22 02:16:06;;;;;;;14.47;5.60;;;7.60;99.90;;;;;;5056950;28;20711;-51
2023/10/22 02:18:32;;;;;;;14.57;5.47;;;7.60;99.90;;;;;;5056974;28;20217;-51
2023/10/22 02:21:02;;;;;;;10.33;5.00;;;7.60;99.90;;;;;;5056766;28;20551;-51
2023/10/22 02:23:28;;;;;;;9.37;5.57;;;7.60;99.90;;;;;;5056773;28;20184;-51
2023/10/22 02:25:54;;;;;;;8.77;5.43;;;7.60;99.90;;;;;;5056203;28;20885;-51
2023/10/22 02:28:20;;;;;;;13.07;5.13;;;7.60;99.90;;;;;;5056310;28;20276;-51
2023/10/22 02:30:49;;;;;;;9.70;5.70;;;7.60;99.90;;;;;;5056187;28;20503;-50
2023/10/22 02:33:14;;;;;;;11.37;5.60;;;7.60;99.90;;;;;;5056131;28;20454;-50
2023/10/22 02:35:44;;;;;;;10.23;5.80;;;7.60;99.90;;;;;;5056241;28;20453;-50
2023/10/22 02:38:13;;;;;;;8.63;5.10;;;7.50;99.90;;;;;;5056029;28;20305;-51
2023/10/22 02:40:38;;;;;;;9.23;5.23;;;7.50;99.90;;;;;;5056511;28;20424;-50
2023/10/22 02:43:05;;;;;;;7.23;5.30;;;7.50;99.90;;;;;;5055905;28;20502;-51
2023/10/22 02:45:30;;;;;;;10.17;5.60;;;7.50;99.90;;;;;;5056066;28;20217;-50
2023/10/22 02:47:58;;;;;;;10.40;5.53;;;7.50;99.90;;;;;;5055661;28;20415;-51
2023/10/22 02:50:24;;;;;;;18.47;5.63;;;7.50;99.90;;;;;;5055502;28;20387;-50
2023/10/22 02:52:50;;;;;;;12.40;5.87;;;7.50;99.90;;;;;;5056039;28;20919;-51
2023/10/22 02:55:16;;;;;;;10.00;5.20;;;7.50;99.90;;;;;;5055947;28;20423;-51
2023/10/22 02:57:41;;;;;;;9.73;5.50;;;7.50;99.90;;;;;;5055770;28;20482;-50
2023/10/22 03:00:10;;;;;;;12.23;4.90;;;7.50;99.90;;;;;;5056194;28;20181;-50
2023/10/22 03:02:40;;;;;;;8.17;5.10;;;7.50;99.90;;;;;;5055963;28;20181;-50
2023/10/22 03:05:06;;;;;;;10.70;4.30;;;7.50;99.90;;;;;;5055683;28;20526;-50
2023/10/22 03:07:32;;;;;;;10.73;4.57;;;7.50;99.90;;;;;;5055899;28;20510;-50
2023/10/22 03:09:58;;;;;;;10.73;5.33;;;7.50;99.90;;;;;;5055363;28;20518;-50
2023/10/22 03:12:23;;;;;;;11.67;4.87;;;7.50;99.90;;;;;;5055646;28;20681;-50
2023/10/22 03:14:53;;;;;;;16.43;4.80;;;7.60;99.90;;;;;;5055248;28;20425;-50
2023/10/22 03:17:19;;;;;;;8.27;5.00;;;7.60;99.90;;;;;;5055677;28;20183;-50
2023/10/22 03:19:45;;;;;;;9.90;4.30;;;7.60;99.90;;;;;;5055553;28;20893;-50
2023/10/22 03:22:12;;;;;;;7.03;3.93;;;7.50;99.90;;;;;;5055499;28;20401;-50
2023/10/22 03:24:38;;;;;;;7.70;4.70;;;7.50;99.90;;;;;;5055016;28;20970;-50
2023/10/22 03:27:05;;;;;;;11.90;4.97;;;7.50;99.90;;;;;;5054899;28;20468;-51
2023/10/22 03:29:31;;;;;;;7.90;4.80;;;7.40;99.90;;;;;;5055322;28;20415;-50
2023/10/22 03:31:57;;;;;;;9.10;4.50;;;7.40;99.90;;;;;;5055257;28;20422;-50
2023/10/22 03:34:24;;;;;;;9.50;5.10;;;7.40;99.90;;;;;;5055051;28;20907;-51
2023/10/22 03:36:49;;;;;;;8.07;4.90;;;7.30;99.90;;;;;;5054938;28;20423;-51
2023/10/22 03:39:15;;;;;;;7.33;4.30;;;7.30;99.90;;;;;;5054790;28;20420;-50
2023/10/22 03:41:41;;;;;;;12.10;4.80;;;7.30;99.90;;;;;;5054835;28;20178;-51
2023/10/22 03:44:06;;;;;;;7.60;4.60;;;7.20;99.90;;;;;;5054776;28;20343;-50
2023/10/22 03:46:32;;;;;;;15.27;5.13;;;7.20;99.90;;;;;;5054613;28;20220;-50
2023/10/22 03:48:58;;;;;;;13.43;4.90;;;7.10;99.90;;;;;;5054730;28;20186;-50
2023/10/22 03:51:24;;;;;;;14.60;5.20;;;7.10;99.90;;;;;;5054568;28;20228;-50
2023/10/22 03:53:53;;;;;;;7.60;5.17;;;7.10;99.90;;;;;;5054717;28;20794;-50
2023/10/22 03:56:20;;;;;;;6.73;4.63;;;7.10;99.90;;;;;;5054974;28;20190;-50
2023/10/22 03:58:45;;;;;;;10.77;5.57;;;7.10;99.90;;;;;;5054906;28;20456;-49
2023/10/22 04:01:11;;;;;;;8.50;5.43;;;7.10;99.90;;;;;;5054617;28;20443;-50
2023/10/22 04:03:36;;;;;;;14.83;5.30;;;7.00;99.90;;;;;;5054007;28;20181;-50
2023/10/22 04:06:02;;;;;;;7.80;5.23;;;7.00;99.90;;;;;;5054492;28;20299;-50
2023/10/22 04:08:28;;;;;;;9.83;5.07;;;7.00;99.90;;;;;;5054843;28;20184;-50
2023/10/22 04:10:54;;;;;;;8.17;4.53;;;7.00;99.90;;;;;;5054530;28;20268;-50
2023/10/22 04:13:20;;;;;;;8.10;4.70;;;7.00;99.90;;;;;;5054424;28;20422;-50
2023/10/22 04:15:46;;;;;;;10.00;5.23;;;7.10;99.90;;;;;;5054452;28;20428;-50
2023/10/22 04:18:13;;;;;;;8.73;4.30;;;7.00;99.90;;;;;;5054235;28;20623;-50
2023/10/22 04:20:39;;;;;;;6.33;4.60;;;7.10;99.90;;;;;;5054389;28;20429;-50
2023/10/22 04:23:05;;;;;;;9.87;4.87;;;7.10;99.90;;;;;;5054518;28;20416;-50
2023/10/22 04:25:37;;;;;;;8.30;4.63;;;7.00;99.90;;;;;;5054153;28;20673;-50
2023/10/22 04:28:03;;;;;;;8.17;4.90;;;7.10;99.90;;;;;;5054140;28;20189;-50
2023/10/22 04:30:28;;;;;;;8.57;4.50;;;7.10;99.90;;;;;;5054250;28;20423;-50
2023/10/22 04:32:54;;;;;;;9.33;4.80;;;7.10;99.90;;;;;;5054306;28;20798;-50
2023/10/22 04:35:19;;;;;;;7.47;4.83;;;7.10;99.90;;;;;;5054123;28;20673;-50
2023/10/22 04:37:45;;;;;;;7.70;4.90;;;7.10;99.90;;;;;;5053934;28;20238;-50
2023/10/22 04:40:11;;;;;;;13.53;4.43;;;7.10;99.90;;;;;;5053945;28;20178;-50
2023/10/22 04:42:36;;;;;;;8.97;4.40;;;7.10;99.90;;;;;;5054028;28;20275;-50
2023/10/22 04:45:02;;;;;;;10.43;4.20;;;7.20;99.90;;;;;;5053738;28;20499;-50
2023/10/22 04:47:28;;;;;;;8.60;4.30;;;7.20;99.90;;;;;;5053698;28;20194;-50
2023/10/22 04:49:53;;;;;;;6.37;3.80;;;7.20;99.90;;;;;;5053922;28;20189;-50
2023/10/22 04:52:31;;;;;;;18.63;4.47;;;7.20;99.90;;;;;;5053386;28;20331;-50
2023/10/22 04:54:58;;;;;;;5.37;3.80;;;7.20;99.90;;;;;;5054019;28;20170;-50
2023/10/22 04:57:24;;;;;;;10.37;4.20;;;7.20;99.90;;;;;;5053637;28;20425;-50
2023/10/22 04:59:50;;;;;;;5.67;3.83;;;7.20;99.90;;;;;;5053371;28;20476;-50
2023/10/22 05:02:15;;;;;;;6.90;4.00;;;7.30;99.90;;;;;;5053642;28;20177;-50
2023/10/22 05:04:41;;;;;;;5.67;3.53;;;7.40;99.90;;;;;;5053309;28;20214;-50
2023/10/22 05:07:06;;;;;;;9.07;3.93;;;7.40;99.90;;;;;;5053375;28;20187;-50
2023/10/22 05:09:33;;;;;;;6.40;3.80;;;7.40;99.90;;;;;;5053670;28;20184;-50
2023/10/22 05:11:59;;;;;;;8.07;4.17;;;7.40;99.90;;;;;;5053690;28;20188;-49
2023/10/22 05:14:24;;;;;;;6.20;3.60;;;7.50;99.90;;;;;;5052604;28;20512;-50
2023/10/22 05:16:52;;;;;;;8.10;4.13;;;7.40;99.90;;;;;;5053198;28;20185;-50
2023/10/22 05:19:17;;;;;;;10.67;3.80;;;7.50;99.90;;;;;;5053444;28;20186;-50
2023/10/22 05:21:43;;;;;;;8.70;4.10;;;7.50;99.90;;;;;;5053631;28;20975;-50
2023/10/22 05:24:11;;;;;;;9.33;4.10;;;7.50;99.90;;;;;;5053054;28;20705;-50
2023/10/22 05:26:37;;;;;;;7.60;3.80;;;7.50;99.90;;;;;;5053462;28;20590;-50
2023/10/22 05:29:03;;;;;;;19.07;4.30;;;7.50;99.90;;;;;;5053096;28;20456;-50
2023/10/22 05:31:30;;;;;;;8.73;3.93;;;7.50;99.90;;;;;;5053212;28;20180;-50
2023/10/22 05:33:55;;;;;;;7.23;4.00;;;7.60;99.90;;;;;;5053075;28;20228;-50
2023/10/22 05:36:21;;;;;;;10.80;3.70;;;7.60;99.90;;;;;;5053200;28;20913;-50
2023/10/22 05:38:48;;;;;;;7.80;3.50;;;7.60;99.90;;;;;;5053310;28;20182;-50
2023/10/22 05:41:24;;;;;;;10.17;4.37;;;7.60;99.90;;;;;;5053391;28;20466;-50
2023/10/22 05:44:00;;;;;;;5.23;3.77;;;7.60;99.90;;;;;;5053049;28;20427;-50
2023/10/22 05:46:27;;;;;;;9.03;3.80;;;7.60;99.90;;;;;;5053353;28;20420;-50
2023/10/22 05:48:52;;;;;;;9.23;4.20;;;7.60;99.90;;;;;;5053257;28;20479;-50
2023/10/22 05:51:18;;;;;;;8.13;4.00;;;7.60;99.90;;;;;;5052751;28;20502;-50
2023/10/22 05:53:44;;;;;;;8.00;4.43;;;7.60;99.90;;;;;;5053044;28;20182;-50
2023/10/22 05:56:10;;;;;;;8.57;4.20;;;7.60;99.90;;;;;;5053175;28;20185;-50
2023/10/22 05:58:38;;;;;;;9.83;3.97;;;7.60;99.90;;;;;;5053197;28;20912;-50
2023/10/22 06:01:03;;;;;;;8.87;4.27;;;7.60;99.90;;;;;;5053120;28;20192;-50
2023/10/22 06:03:29;;;;;;;7.87;3.83;;;7.60;99.90;;;;;;5053322;28;20900;-50
2023/10/22 06:05:54;;;;;;;7.77;4.27;;;7.60;99.90;;;;;;5053041;28;20564;-50
2023/10/22 06:08:20;;;;;;;12.47;4.30;;;7.60;99.90;;;;;;5053047;28;20566;-50
2023/10/22 06:10:48;;;;;;;7.00;3.90;;;7.60;99.90;;;;;;5053080;28;20190;-50
2023/10/22 06:13:14;;;;;;;11.10;4.00;;;7.70;99.90;;;;;;5052699;28;20190;-50
2023/10/22 06:15:42;;;;;;;10.77;3.60;;;7.70;99.90;;;;;;5052695;28;20439;-50
2023/10/22 06:18:08;;;;;;;10.03;3.60;;;7.60;99.90;;;;;;5052798;28;20235;-50
2023/10/22 06:20:34;;;;;;;7.93;3.93;;;7.60;99.90;;;;;;5052611;28;20414;-50
2023/10/22 06:23:00;;;;;;;10.30;3.70;;;7.70;99.90;;;;;;5052787;28;20184;-50
2023/10/22 06:25:26;;;;;;;10.53;3.90;;;7.70;99.90;;;;;;5052728;28;20453;-50
2023/10/22 06:27:55;;;;;;;4.87;3.47;;;7.70;99.90;;;;;;5056541;28;20914;-50
2023/10/22 06:30:25;;;;;;;11.40;4.10;;;7.70;99.90;;;;;;5056584;28;20231;-50
2023/10/22 06:32:58;;;;;;;12.50;4.33;;;7.80;99.90;;;;;;5056498;28;20430;-50
2023/10/22 06:35:27;;;;;;;9.80;4.40;;;7.90;99.90;;;;;;5056867;28;20761;-50
2023/10/22 06:37:56;;;;;;;12.30;4.03;;;7.90;99.90;;;;;;5056312;28;20415;-50
2023/10/22 06:40:22;;;;;;;4.63;3.80;;;8.00;99.90;;;;;;5056102;28;20518;-50
2023/10/22 06:42:48;;;;;;;7.03;3.90;;;8.10;99.90;;;;;;5056010;28;20421;-50
2023/10/22 06:45:15;;;;;;;12.63;4.47;;;8.30;99.90;;;;;;5055910;28;20932;-50
2023/10/22 06:47:41;;;;;;;11.90;3.43;;;8.30;99.90;;;;;;5055998;28;20855;-50
2023/10/22 06:50:08;;;;;;;5.03;4.20;;;8.40;99.90;;;;;;5055443;28;20411;-51
2023/10/22 06:52:35;;;;;;;12.40;4.30;;;8.50;99.90;;;;;;5056081;28;20465;-50
2023/10/22 06:55:00;;;;;;;7.03;3.47;;;8.60;99.90;;;;;;5055847;28;20428;-50
2023/10/22 06:57:27;;;;;;;12.73;4.10;;;8.70;99.90;;;;;;5055663;28;20414;-50
2023/10/22 06:59:52;;;;;;;8.43;4.30;;;8.80;99.90;;;;;;5056137;28;20267;-49
2023/10/22 07:02:19;;;;;;;7.13;3.83;;;8.90;99.90;;;;;;5055885;28;20522;-50
2023/10/22 07:04:47;;;;;;;7.93;4.20;;;8.90;99.90;;;;;;5055543;28;20225;-50
2023/10/22 07:07:13;;;;;;;11.10;3.80;;;9.00;99.90;;;;;;5055674;28;20908;-50
2023/10/22 07:09:38;;;;;;;16.40;4.60;;;9.00;99.90;;;;;;5037787;28;20413;-50
2023/10/22 07:12:05;;;;;;;7.60;4.40;;;9.00;99.90;;;;;;5055688;28;20622;-50
2023/10/22 07:14:30;;;;;;;8.53;3.90;;;9.10;99.90;;;;;;5049853;28;20689;-50
2023/10/22 07:16:56;;;;;;;7.13;3.70;;;9.10;99.90;;;;;;5049421;28;20515;-50
2023/10/22 07:19:22;;;;;;;7.27;3.70;;;9.00;99.90;;;;;;5049148;28;20239;-50
2023/10/22 07:21:48;;;;;;;13.83;4.00;;;9.00;99.90;;;;;;5049373;28;20802;-50
2023/10/22 07:24:13;;;;;;;5.70;3.40;;;9.00;99.90;;;;;;5049173;28;20250;-50
2023/10/22 07:26:39;;;;;;;3.90;3.07;;;8.90;99.90;;;;;;5048298;28;20201;-50
2023/10/22 07:29:04;;;;;;;5.97;2.93;;;9.00;99.90;;;;;;5049567;28;20251;-50
2023/10/22 07:31:30;;;;;;;13.40;5.47;;;9.00;99.90;;;;;;5048244;28;20332;-50
2023/10/22 07:33:56;;;;;;;8.40;4.47;;;9.10;99.90;;;;;;5049857;28;20540;-50
2023/10/22 07:36:21;;;;;;;3.93;3.00;;;9.20;99.90;;;;;;5046728;28;20186;-49
2023/10/22 07:38:51;;;;;;;8.10;4.03;;;9.20;99.90;;;;;;5046828;28;20267;-50
2023/10/22 07:41:18;;;;;;;11.43;4.90;;;9.30;99.90;;;;;;5048016;28;20319;-49
2023/10/22 07:43:43;;;;;;;5.27;3.27;;;9.40;99.90;;;;;;5048968;28;20444;-50
2023/10/22 07:46:10;;;;;;;6.13;3.27;;;9.60;99.90;;;;;;5047932;28;20490;-49
2023/10/22 07:48:37;;;;;;;9.10;3.80;;;9.80;99.90;;;;;;5047724;28;20201;-50
2023/10/22 07:51:16;;;;;;;5.03;3.87;;;10.40;99.90;;;;;;5049663;28;20484;-51
2023/10/22 07:53:43;;;;;;;5.57;3.30;;;11.20;99.90;;;;;;5047609;28;20448;-49
2023/10/22 07:56:10;;;;;;;5.60;2.90;;;11.50;99.90;;;;;;5047204;28;20522;-51
2023/10/22 07:58:36;;;;;;;8.53;2.73;;;11.30;99.90;;;;;;5049226;28;20563;-49
2023/10/22 08:01:03;;;;;;;4.03;2.77;;;11.10;99.90;;;;;;5047231;28;20463;-49
2023/10/22 08:03:30;;;;;;;7.80;2.77;;;11.00;99.90;;;;;;5048895;28;20447;-49
2023/10/22 08:05:57;;;;;;;5.20;2.70;;;10.90;99.90;;;;;;5047419;28;20468;-49
2023/10/22 08:08:23;;;;;;;7.10;3.00;;;10.90;99.90;;;;;;5054310;28;20431;-50
2023/10/22 08:10:49;;;;;;;5.43;2.83;;;10.80;99.90;;;;;;5054675;28;20413;-50
2023/10/22 08:13:15;;;;;;;6.77;3.23;;;10.90;99.90;;;;;;5054090;28;20175;-50
2023/10/22 08:15:40;;;;;;;5.57;2.60;;;10.90;99.90;;;;;;5054144;28;20427;-50
2023/10/22 08:18:06;;;;;;;8.33;2.60;;;11.00;99.90;;;;;;5054498;28;20197;-50
2023/10/22 08:20:35;;;;;;;3.23;2.23;;;11.00;99.90;;;;;;5054502;28;20228;-50
2023/10/22 08:23:01;;;;;;;3.53;2.40;;;11.10;99.90;;;;;;5054435;28;20597;-50
2023/10/22 08:25:26;;;;;;;6.00;2.73;;;11.10;99.90;;;;;;5054494;28;20496;-50
2023/10/22 08:27:52;;;;;;;9.27;2.80;;;11.20;99.90;;;;;;5054158;28;20180;-51
2023/10/22 08:30:18;;;;;;;4.20;2.20;;;11.20;99.90;;;;;;5054290;28;20182;-50
2023/10/22 08:32:47;;;;;;;3.97;2.47;;;11.20;99.90;;;;;;5054044;28;20548;-50
2023/10/22 08:35:13;;;;;;;5.03;2.70;;;11.20;99.90;;;;;;5054139;28;20565;-50
2023/10/22 08:37:40;;;;;;;5.30;2.63;;;11.20;99.90;;;;;;5053899;28;20455;-50
2023/10/22 08:40:08;;;;;;;8.80;3.20;;;11.30;99.90;;;;;;5054403;28;20427;-50
2023/10/22 08:42:35;;;;;;;7.07;3.07;;;11.30;99.90;;;;;;5054133;28;20409;-50
2023/10/22 08:45:01;;;;;;;7.40;2.87;;;11.40;99.90;;;;;;5054040;28;20538;-51
2023/10/22 08:47:28;;;;;;;7.63;3.10;;;11.40;99.90;;;;;;5054009;28;20417;-50
2023/10/22 08:49:55;;;;;;;8.20;2.90;;;11.50;99.90;;;;;;5053838;28;20418;-50
2023/10/22 08:52:21;;;;;;;9.70;3.30;;;11.60;99.90;;;;;;5053958;28;20969;-50
2023/10/22 08:54:47;;;;;;;4.40;2.80;;;11.80;99.90;;;;;;5054342;28;20429;-50
2023/10/22 08:57:14;;;;;;;3.03;2.73;;;11.90;99.90;;;;;;5054149;28;20429;-50
2023/10/22 08:59:39;;;;;;;5.07;2.83;;;12.00;99.90;;;;;;5053941;28;20427;-50
2023/10/22 09:02:16;;;;;;;3.50;2.20;;;12.00;99.90;;;;;;5053795;28;20409;-50
2023/10/22 09:04:42;;;;;;;3.43;2.20;;;12.00;99.90;;;;;;5053343;28;20206;-50
2023/10/22 09:07:08;;;;;;;5.57;1.90;;;12.00;99.90;;;;;;5053644;28;20518;-50
2023/10/22 09:09:36;;;;;;;3.53;1.80;;;12.00;90.30;;;;;;5053616;28;20445;-50
2023/10/22 09:12:03;;;;;;;3.80;1.93;;;12.10;17.00;;;;;;5053783;28;20425;-50
2023/10/22 09:14:29;;;;;;;4.20;1.90;;;12.10;1.00;;;;;;5053767;28;20417;-50
2023/10/22 09:16:55;;;;;;;6.97;2.27;;;12.00;1.00;;;;;;5053651;28;20499;-50
2023/10/22 09:19:37;;;;;;;6.77;2.57;;;12.10;1.00;;;;;;5053609;28;20902;-49
2023/10/22 09:22:04;;;;;;;2.60;1.60;;;12.10;1.00;;;;;;5053520;28;20261;-51
2023/10/22 09:24:33;;;;;;;4.00;1.83;;;12.10;1.00;;;;;;5053677;28;20467;-50
2023/10/22 09:26:58;;;;;;;3.17;1.80;;;12.20;1.00;;;;;;5053554;28;20500;-50
2023/10/22 09:29:24;;;;;;;2.13;1.90;;;12.20;1.00;;;;;;5053402;28;20950;-50
2023/10/22 09:31:51;;;;;;;2.33;1.97;;;12.20;1.00;;;;;;5053492;28;20642;-50
2023/10/22 09:34:27;;;;;;;6.60;2.20;;;12.30;1.00;;;;;;5052745;28;20644;-51
2023/10/22 09:36:56;;;;;;;3.70;2.20;;;12.30;1.00;;;;;;5046890;28;20429;-49
2023/10/22 09:39:35;;;;;;;2.90;1.87;;;12.40;1.00;;;;;;5045088;28;20437;-50
2023/10/22 09:42:03;;;;;;;3.50;2.07;;;12.40;1.00;;;;;;5048240;28;20519;-51
2023/10/22 09:44:30;;;;;;;10.30;6.70;;;12.30;1.00;;;;;;5043218;28;20978;-51
2023/10/22 09:46:57;;;;;;;8.50;5.20;;;12.40;1.00;;;;;;5043580;28;20797;-51
2023/10/22 09:49:23;;;;;;;3.53;2.40;;;12.40;1.00;;;;;;5045264;28;20436;-51
2023/10/22 09:51:51;;;;;;;38.97;23.93;;;12.30;1.00;;;;;;5041446;28;20490;-51
2023/10/22 09:54:21;;;;;;;3.20;2.40;;;12.30;1.00;;;;;;5046253;28;20482;-54
2023/10/22 09:56:51;;;;;;;8.20;2.33;;;12.30;1.00;;;;;;5044247;28;20450;-54
2023/10/22 09:59:20;;;;;;;3.20;2.10;;;13.00;1.00;;;;;;5044677;28;20517;-55
2023/10/22 10:01:45;;;;;;;4.30;2.40;;;12.30;1.00;;;;;;5051006;28;20430;-52
2023/10/22 10:04:13;;;;;;;4.50;2.83;;;12.30;11.50;;;;;;5051236;28;20558;-51
2023/10/22 10:06:40;;;;;;;8.33;2.80;;;12.40;51.10;;;;;;5044984;28;20206;-51
2023/10/22 10:09:09;;;;;;;2.60;2.10;;;12.30;86.30;;;;;;5043089;28;20444;-51
2023/10/22 10:11:35;;;;;;;7.53;2.60;;;12.30;90.10;;;;;;5051354;28;20443;-51
2023/10/22 10:14:35;;;;;;;4.20;2.70;;;12.30;99.90;;;;;;5048746;28;20452;-51
2023/10/22 10:17:01;;;;;;;5.20;2.83;;;12.20;99.90;;;;;;5036393;28;20946;-51
2023/10/22 10:19:27;;;;;;;5.50;2.90;;;12.30;99.90;;;;;;5050627;28;20956;-51
2023/10/22 10:21:53;;;;;;;4.20;2.67;;;12.30;99.90;;;;;;5056357;28;20463;-51
2023/10/22 10:24:24;;;;;;;4.23;3.30;;;12.30;99.90;;;;;;5040055;28;20222;-50
2023/10/22 10:27:13;;;;;;;3.60;2.67;;;12.30;99.90;;;;;;5036413;28;20429;-49
2023/10/22 10:29:39;;;;;;;9.13;2.80;;;12.30;99.90;;;;;;5029203;28;20438;-50
2023/10/22 10:32:13;;;;;;;9.30;3.10;;;12.30;99.90;;;;;;5036228;28;20456;-50
2023/10/22 10:34:44;;;;;;;5.23;2.77;;;12.30;99.90;;;;;;5036411;28;20429;-50
2023/10/22 10:37:20;;;;;;;10.73;3.47;;;12.40;99.90;;;;;;5036610;28;20417;-50
2023/10/22 10:39:50;;;;;;;5.40;2.63;;;12.40;99.90;;;;;;5036210;28;20421;-50
2023/10/22 10:42:31;;;;;;;5.27;3.20;;;12.40;99.90;;;;;;5036079;28;20425;-49
2023/10/22 10:45:00;;;;;;;6.63;3.17;;;12.40;99.90;;;;;;5034904;28;20454;-50
2023/10/22 10:47:29;;;;;;;4.80;3.13;;;12.40;99.90;;;;;;5035763;28;20440;-49
2023/10/22 10:50:05;;;;;;;6.13;2.83;;;12.40;99.90;;;;;;5036263;28;20434;-50
2023/10/22 10:52:43;;;;;;;4.33;3.00;;;12.40;99.90;;;;;;5035330;28;20426;-50
2023/10/22 10:55:27;;;;;;;6.13;2.67;;;12.40;99.90;;;;;;5036130;28;20426;-49
2023/10/22 10:57:54;;;;;;;3.90;3.10;;;12.30;99.90;;;;;;5036420;28;20406;-50
2023/10/22 11:00:27;;;;;;;5.13;2.40;;;12.30;99.90;;;;;;5035971;28;20452;-49
2023/10/22 11:02:53;;;;;;;7.40;2.73;;;12.30;99.90;;;;;;5035943;28;20438;-51
2023/10/22 11:05:39;;;;;;;4.43;2.50;;;12.30;99.90;;;;;;5036068;28;20461;-50
2023/10/22 11:08:15;;;;;;;4.80;3.00;;;12.30;99.90;;;;;;5035735;28;20406;-50
2023/10/22 11:10:41;;;;;;;3.17;2.83;;;12.30;99.90;;;;;;5035477;28;20433;-50
2023/10/22 11:13:07;;;;;;;4.13;3.10;;;12.40;99.90;;;;;;5035794;28;20922;-51
2023/10/22 11:15:37;;;;;;;4.90;3.00;;;12.40;99.90;;;;;;5035397;28;20782;-50
2023/10/22 11:18:08;;;;;;;5.33;2.97;;;12.50;99.90;;;;;;5035762;28;20403;-50
2023/10/22 11:20:34;;;;;;;3.00;2.80;;;12.50;99.90;;;;;;5035914;28;20453;-50
2023/10/22 11:23:00;;;;;;;6.90;3.40;;;12.50;99.90;;;;;;5035623;28;20508;-50
2023/10/22 11:25:27;;;;;;;3.60;3.30;;;12.50;99.90;;;;;;5035618;28;20465;-50
2023/10/22 11:27:56;;;;;;;6.03;3.47;;;12.60;99.90;;;;;;5035478;28;20419;-50
2023/10/22 11:30:36;;;;;;;4.17;3.77;;;12.60;99.90;;;;;;5035474;28;20487;-50
2023/10/22 11:33:04;;;;;;;4.67;3.40;;;12.60;99.90;;;;;;5035424;28;20432;-50
2023/10/22 11:35:32;;;;;;;5.27;3.40;;;12.70;99.90;;;;;;5035258;28;20430;-50
2023/10/22 11:37:58;;;;;;;5.13;4.17;;;12.80;99.90;;;;;;5035174;28;20457;-50
2023/10/22 11:40:29;;;;;;;6.57;3.80;;;12.90;99.10;;;;;;5017221;28;20458;-50
2023/10/22 11:42:59;;;;;;;5.73;3.73;;;13.00;72.40;;;;;;5035210;28;20423;-51
2023/10/22 11:45:29;;;;;;;9.90;3.77;;;13.10;69.90;;;;;;5035058;28;20549;-50
2023/10/22 11:48:11;;;;;;;6.80;4.20;;;13.20;1.00;;;;;;5035211;28;20427;-50
2023/10/22 11:50:37;;;;;;;10.03;3.77;;;13.40;1.00;;;;;;5034987;28;20465;-50
2023/10/22 11:53:02;;;;;;;4.17;3.50;;;13.50;1.00;;;;;;5034716;28;20504;-50
2023/10/22 11:55:28;;;;;;;5.20;3.20;;;13.50;1.00;;;;;;5034702;28;20431;-51
2023/10/22 11:57:53;;;;;;;6.23;3.50;;;13.50;1.00;;;;;;5034825;28;20188;-50
2023/10/22 12:00:19;;;;;;;5.97;3.60;;;13.40;99.90;;;;;;5035151;28;20262;-50
2023/10/22 12:02:45;;;;;;;9.07;4.47;;;13.40;99.90;;;;;;5034890;28;20176;-50
2023/10/22 12:05:12;;;;;;;6.00;3.37;;;13.40;99.90;;;;;;5034626;28;20226;-50
2023/10/22 12:07:38;;;;;;;5.67;3.20;;;13.40;99.90;;;;;;5034802;28;20179;-50
2023/10/22 12:10:06;;;;;;;4.83;3.33;;;13.40;99.90;;;;;;5034807;28;20426;-50
2023/10/22 12:12:32;;;;;;;6.47;3.10;;;13.30;99.90;;;;;;5034590;28;20629;-50
2023/10/22 12:14:58;;;;;;;4.80;2.57;;;13.30;9.00;;;;;;5034597;28;20420;-50
2023/10/22 12:17:23;;;;;;;4.60;2.00;;;13.20;26.60;;;;;;5034507;28;20928;-50
2023/10/22 12:19:49;;;;;;;3.10;2.60;;;13.20;1.00;;;;;;5034548;28;20426;-50
2023/10/22 12:22:15;;;;;;;3.27;2.47;;;13.10;1.00;;;;;;5034754;28;20229;-50
2023/10/22 12:24:40;;;;;;;5.27;2.47;;;13.10;1.00;;;;;;5033748;28;20666;-50
2023/10/22 12:27:06;;;;;;;5.53;2.57;;;13.20;1.00;;;;;;5034116;28;20180;-50
2023/10/22 12:29:31;;;;;;;3.77;2.40;;;13.20;99.90;;;;;;5034231;28;20312;-50
2023/10/22 12:31:57;;;;;;;4.50;2.00;;;13.50;99.90;;;;;;5034045;28;20181;-49
2023/10/22 12:34:22;;;;;;;7.03;2.23;;;13.80;99.90;;;;;;5034214;28;20533;-50
2023/10/22 12:36:48;;;;;;;6.13;1.60;;;13.70;99.90;;;;;;5034179;28;20179;-49
2023/10/22 12:39:13;;;;;;;5.20;2.50;;;13.90;99.90;;;;;;5034033;28;20642;-50
2023/10/22 12:41:39;;;;;;;2.87;2.30;;;14.00;1.00;;;;;;5034319;28;20188;-50
2023/10/22 12:44:05;;;;;;;6.37;2.30;;;14.10;99.90;;;;;;5033639;28;20220;-50
2023/10/22 12:46:31;;;;;;;3.83;2.37;;;14.20;1.00;;;;;;5034167;28;20542;-49
2023/10/22 12:48:57;;;;;;;2.03;1.93;;;14.30;1.00;;;;;;5033811;28;20186;-50
2023/10/22 12:51:22;;;;;;;3.93;2.20;;;14.30;1.00;;;;;;5033752;28;20482;-49